Custer, SD

5:08 PM MDT on October 24, 2014 (GMT -0600)
RAWS CUSTER SD US | Change Station
CLOSE
Current Station
Personal Weather Station
Location: Custer, SD
Elevation: 5820 ft
Nearby Weather Stations

Elev 5820 ft 43.78 °N, 103.64 °W | Updated 44 minutes ago

Clear
Clear
64 °F
Feels Like 64 °F
N
4
Wind Variable Wind from ESE
Gusts 8.0 mph

Today
High -- | Low -- °F
--% Chance of Precip.
Yesterday
High -- | Low -- °F
Precip. -- in
7:20 AM 5:56 PM
New Moon, 1% visible
Pressure 29.98 in
Visibility 10.0 miles
Clouds Clear
Dew Point 35 °F
Humidity 34%
Rainfall 0.00 in
Snow Depth Not available.
UV 1 out of 12
Pollen 2.50 out of 12
Air Quality Not available.
Flu Activity Sporadic
METAR KCUT 242253Z AUTO 10007KT 10SM CLR 16/01 A3011 RMK AO2 SLP152 T01610011

More Conditions Fewer Conditions

Pressure 29.98 in
Visibility 10.0 miles
Clouds Clear
Dew Point 35 °F
Humidity 34%
Rainfall 0.00 in
Snow Depth Not available.
UV 1 out of 12
Pollen 2.50 out of 12
Air Quality Not available.
Flu Activity Sporadic
METAR KCUT 242253Z AUTO 10007KT 10SM CLR 16/01 A3011 RMK AO2 SLP152 T01610011

More Conditions Fewer Conditions

10-Day Weather Forecast

Almanac

Astronomy

Oct. 24, 2014 Rise Set
Actual Time 7:20 AM MDT 5:56 PM MDT
Civil Twilight 6:50 AM MDT 6:25 PM MDT
Nautical Twilight 6:17 AM MDT 6:59 PM MDT
Astronomical Twilight 5:43 AM MDT 7:32 PM MDT
Moon 8:02 AM MDT 6:36 PM MDT
Length of Visible Light 11h 35m
Length of Day
10h 36m
Tomorrow will be 2m 48s shorter.
New Moon, 1% of the Moon is Illuminated
Today
New Moon
Oct 30
First Quarter
Nov 6
Full
Nov 14
Last Quarter
Nov 22
New

Today's Extremes

State Highs State Lows

Community

WunderPhotos

Upload Photos

1,764,705 photos uploaded!

Nearby

Snow Depth

Station Depth Elevation
Blind Park 0 in 6890 ft
North Rapid Creek 0 in 6130 ft

Earthquake Activity

City Distance Mag. Time & Date
No recent earthquake activity has been reported nearby.
Minimum magnitude displayed is 2.5.

Coastal Water Temperatures

Place Temperature
No Stations Reporting

Nearby Weather Stations